createdAt,value
2023-03-01T00:01:23.663Z,0.20
2023-03-01T00:03:52.438Z,0.20
2023-03-01T00:06:22.197Z,0.20
2023-03-01T00:08:50.613Z,0.30
2023-03-01T00:11:21.481Z,0.20
2023-03-01T00:13:53.755Z,0.20
2023-03-01T00:16:24.197Z,0.20
2023-03-01T00:18:52.878Z,0.20
2023-03-01T00:21:23.217Z,0.30
2023-03-01T00:23:52.317Z,0.20
2023-03-01T00:26:21.909Z,0.20
2023-03-01T00:28:52.240Z,0.30
2023-03-01T00:31:22.505Z,0.20
2023-03-01T00:33:54.219Z,0.30
2023-03-01T00:36:22.463Z,0.20
2023-03-01T00:38:50.872Z,0.30
2023-03-01T00:41:21.149Z,0.20
2023-03-01T00:43:49.791Z,0.20
2023-03-01T00:46:21.791Z,0.20
2023-03-01T00:48:50.267Z,0.20
2023-03-01T00:51:19.795Z,0.20
2023-03-01T00:53:48.801Z,0.20
2023-03-01T00:56:17.475Z,0.57
2023-03-01T00:58:46.100Z,0.23
2023-03-01T01:01:19.287Z,0.83
2023-03-01T01:03:53.723Z,0.20
2023-03-01T01:06:24.616Z,0.20
2023-03-01T01:08:53.691Z,0.20
2023-03-01T01:11:22.820Z,0.80
2023-03-01T01:13:52.031Z,0.67
2023-03-01T01:16:22.133Z,0.30
2023-03-01T01:18:52.863Z,0.30
2023-03-01T01:21:25.063Z,0.20
2023-03-01T01:23:54.152Z,0.20
2023-03-01T01:26:25.204Z,0.70
2023-03-01T01:28:54.008Z,0.30
2023-03-01T01:31:26.304Z,0.20
2023-03-01T01:33:56.872Z,0.30
2023-03-01T01:36:25.521Z,0.20
2023-03-01T01:38:54.453Z,0.50
2023-03-01T01:41:23.834Z,0.30
2023-03-01T01:44:07.698Z,0.20
2023-03-01T01:46:39.729Z,0.30
2023-03-01T01:49:19.734Z,0.20
2023-03-01T01:51:51.333Z,0.40
2023-03-01T01:54:24.670Z,0.20
2023-03-01T01:56:57.408Z,0.20
2023-03-01T01:59:27.097Z,0.20
2023-03-01T02:01:55.582Z,0.20
2023-03-01T02:04:26.653Z,0.20
2023-03-01T02:07:00.346Z,0.30
2023-03-01T02:09:29.389Z,0.20
2023-03-01T02:11:57.821Z,0.20
2023-03-01T02:14:26.060Z,0.20
2023-03-01T02:16:54.660Z,0.20
2023-03-01T02:19:43.382Z,0.20
2023-03-01T02:22:21.433Z,0.20
2023-03-01T02:25:01.387Z,0.20
2023-03-01T02:27:39.038Z,0.20
2023-03-01T02:30:13.390Z,0.20
2023-03-01T02:32:42.753Z,0.47
2023-03-01T02:35:13.334Z,0.20
2023-03-01T02:37:43.267Z,0.20
2023-03-01T02:40:16.695Z,0.20
2023-03-01T02:42:51.164Z,0.20
2023-03-01T02:45:20.949Z,0.20
2023-03-01T02:47:49.480Z,0.20
2023-03-01T02:50:31.637Z,0.30
2023-03-01T02:53:07.386Z,0.20
2023-03-01T02:55:35.679Z,0.20
2023-03-01T02:58:05.044Z,0.40
2023-03-01T03:00:41.206Z,0.30
2023-03-01T03:03:10.355Z,0.20
2023-03-01T03:05:38.554Z,0.20
2023-03-01T03:08:08.823Z,0.87
2023-03-01T03:10:40.604Z,0.20
2023-03-01T03:13:10.487Z,0.30
2023-03-01T03:15:41.847Z,0.20
2023-03-01T03:18:12.124Z,0.20
2023-03-01T03:20:42.708Z,0.23
2023-03-01T03:23:11.048Z,0.60
2023-03-01T03:25:39.697Z,0.47
2023-03-01T03:28:11.680Z,0.20
2023-03-01T03:31:00.578Z,0.20
2023-03-01T03:33:28.826Z,0.20
2023-03-01T03:35:57.124Z,0.30
2023-03-01T03:38:25.597Z,0.20
2023-03-01T03:41:02.186Z,0.20
2023-03-01T03:43:31.518Z,0.20
2023-03-01T03:46:19.890Z,0.50
2023-03-01T03:48:48.394Z,0.20
2023-03-01T03:51:18.807Z,0.20
2023-03-01T03:53:47.809Z,0.20
2023-03-01T03:56:16.101Z,0.20
2023-03-01T03:59:02.633Z,0.70
2023-03-01T04:01:50.889Z,0.37
2023-03-01T04:04:20.094Z,0.40
2023-03-01T04:06:49.575Z,0.30
2023-03-01T04:09:17.843Z,0.20
2023-03-01T04:11:46.153Z,0.23
2023-03-01T04:14:14.433Z,0.30
2023-03-01T04:16:42.819Z,0.20
2023-03-01T04:19:12.607Z,0.20
2023-03-01T04:21:41.030Z,0.30
2023-03-01T04:24:10.736Z,0.37
2023-03-01T04:26:38.992Z,0.57
2023-03-01T04:29:07.308Z,1.17
2023-03-01T04:31:35.614Z,1.00
2023-03-01T04:34:03.911Z,0.30
2023-03-01T04:36:37.003Z,0.33
2023-03-01T04:39:13.328Z,0.30
2023-03-01T04:41:42.328Z,0.30
2023-03-01T04:44:10.656Z,0.40
2023-03-01T04:46:39.148Z,0.30
2023-03-01T04:49:07.651Z,0.30
2023-03-01T04:51:37.230Z,0.50
2023-03-01T04:54:09.834Z,0.33
2023-03-01T04:56:38.060Z,0.77
2023-03-01T04:59:06.874Z,0.47
2023-03-01T05:01:36.651Z,0.30
2023-03-01T05:04:06.497Z,0.30
2023-03-01T05:06:36.224Z,0.40
2023-03-01T05:09:04.600Z,0.20
2023-03-01T05:11:36.872Z,0.40
2023-03-01T05:14:05.939Z,0.30
2023-03-01T05:16:36.171Z,0.30
2023-03-01T05:19:12.891Z,0.60
2023-03-01T05:22:02.697Z,0.30
2023-03-01T05:24:32.482Z,0.40
2023-03-01T05:27:01.323Z,0.83
2023-03-01T05:29:31.554Z,0.50
2023-03-01T05:32:02.106Z,0.37
2023-03-01T05:34:35.931Z,0.20
2023-03-01T05:37:06.334Z,0.20
2023-03-01T05:39:34.588Z,0.87
2023-03-01T05:42:03.789Z,0.40
2023-03-01T05:44:32.415Z,0.20
2023-03-01T05:47:00.682Z,0.30
2023-03-01T05:49:28.924Z,0.30
2023-03-01T05:51:57.650Z,0.30
2023-03-01T05:54:27.352Z,0.33
2023-03-01T05:56:55.602Z,0.30
2023-03-01T05:59:24.158Z,0.40
2023-03-01T06:01:52.450Z,0.50
2023-03-01T06:04:20.772Z,0.40
2023-03-01T06:06:49.096Z,0.77
2023-03-01T06:09:17.420Z,1.13
2023-03-01T06:11:47.097Z,0.70
2023-03-01T06:14:15.739Z,1.10
2023-03-01T06:16:43.962Z,0.40
2023-03-01T06:19:12.252Z,0.60
2023-03-01T06:21:40.605Z,0.30
2023-03-01T06:24:09.553Z,1.03
2023-03-01T06:26:37.854Z,0.90
2023-03-01T06:29:07.446Z,0.80
2023-03-01T06:31:35.722Z,0.80
2023-03-01T06:34:04.256Z,0.70
2023-03-01T06:36:32.717Z,0.30
2023-03-01T06:39:01.188Z,0.50
2023-03-01T06:41:29.506Z,0.40
2023-03-01T06:43:57.771Z,0.57
2023-03-01T06:46:28.988Z,1.10
2023-03-01T06:48:57.487Z,0.40
2023-03-01T06:51:26.409Z,0.50
2023-03-01T06:53:55.766Z,0.57
2023-03-01T06:56:24.003Z,0.53
2023-03-01T06:58:52.249Z,0.80
2023-03-01T07:01:20.569Z,0.50
2023-03-01T07:03:50.260Z,0.40
2023-03-01T07:06:18.708Z,0.73
2023-03-01T07:08:47.015Z,0.30
2023-03-01T07:11:15.396Z,0.30
2023-03-01T07:13:43.686Z,0.87
2023-03-01T07:16:11.987Z,0.77
2023-03-01T07:18:40.312Z,0.70
2023-03-01T07:21:11.842Z,0.20
2023-03-01T07:23:40.140Z,0.30
2023-03-01T07:26:08.908Z,0.70
2023-03-01T07:28:39.753Z,0.30
2023-03-01T07:31:08.732Z,0.40
2023-03-01T07:33:37.090Z,0.40
2023-03-01T07:36:06.746Z,0.40
2023-03-01T07:38:36.510Z,0.87
2023-03-01T07:41:06.811Z,1.00
2023-03-01T07:43:35.912Z,0.53
2023-03-01T07:46:05.159Z,0.40
2023-03-01T07:48:34.157Z,0.47
2023-03-01T07:51:03.014Z,0.30
2023-03-01T07:53:32.358Z,0.33
2023-03-01T07:56:08.542Z,0.57
2023-03-01T07:58:37.689Z,0.40
2023-03-01T08:01:07.105Z,0.40
2023-03-01T08:03:35.713Z,0.30
2023-03-01T08:06:05.248Z,0.40
2023-03-01T08:08:33.910Z,0.33
2023-03-01T08:11:03.662Z,0.50
2023-03-01T08:13:33.781Z,0.20
2023-03-01T08:16:04.546Z,0.70
2023-03-01T08:18:32.908Z,0.27
2023-03-01T08:21:04.644Z,0.40
2023-03-01T08:23:32.994Z,0.30
2023-03-01T08:26:09.398Z,0.30
2023-03-01T08:28:39.414Z,0.30
2023-03-01T08:31:17.086Z,0.30
2023-03-01T08:33:51.654Z,0.40
2023-03-01T08:36:22.054Z,0.50
2023-03-01T08:38:50.611Z,1.93
2023-03-01T08:41:19.137Z,0.30
2023-03-01T08:43:48.778Z,0.80
2023-03-01T08:46:17.237Z,0.87
2023-03-01T08:48:45.574Z,0.70
2023-03-01T08:51:16.380Z,0.50
2023-03-01T08:53:45.014Z,0.30
2023-03-01T08:56:13.618Z,0.30
2023-03-01T08:58:42.403Z,0.40
2023-03-01T09:01:13.043Z,0.20
2023-03-01T09:03:41.630Z,0.20
2023-03-01T09:06:10.255Z,0.30
2023-03-01T09:08:39.654Z,0.33
2023-03-01T09:11:09.327Z,0.30
2023-03-01T09:13:37.794Z,0.93
2023-03-01T09:16:08.198Z,0.30
2023-03-01T09:18:38.125Z,1.40
2023-03-01T09:21:09.240Z,1.03
2023-03-01T09:23:40.084Z,0.60
2023-03-01T09:26:09.650Z,0.80
2023-03-01T09:28:39.656Z,0.60
2023-03-01T09:31:08.278Z,0.50
2023-03-01T09:33:37.933Z,0.37
2023-03-01T09:36:08.852Z,0.70
2023-03-01T09:38:37.224Z,0.63
2023-03-01T09:41:13.012Z,0.40
2023-03-01T09:43:48.122Z,0.30
2023-03-01T09:46:18.369Z,1.03
2023-03-01T09:48:52.876Z,0.30
2023-03-01T09:51:27.341Z,1.90
2023-03-01T09:53:58.115Z,1.37
2023-03-01T09:56:34.663Z,0.63
2023-03-01T09:59:17.738Z,0.40
2023-03-01T10:01:54.590Z,0.47
2023-03-01T10:04:43.584Z,0.50
2023-03-01T10:07:32.633Z,0.33
2023-03-01T10:10:01.891Z,1.20
2023-03-01T10:12:36.634Z,0.30
2023-03-01T10:15:11.792Z,0.60
2023-03-01T10:17:44.465Z,0.70
2023-03-01T10:20:26.686Z,0.30
2023-03-01T10:22:56.584Z,2.17
2023-03-01T10:25:46.952Z,0.60
2023-03-01T10:28:19.904Z,0.80
2023-03-01T10:30:48.374Z,1.80
2023-03-01T10:33:22.479Z,0.80
2023-03-01T10:35:52.823Z,0.53
2023-03-01T10:38:22.625Z,0.53
2023-03-01T10:40:58.206Z,0.30
2023-03-01T10:43:27.752Z,0.30
2023-03-01T10:45:56.349Z,0.63
2023-03-01T10:48:27.460Z,0.40
2023-03-01T10:51:09.784Z,0.30
2023-03-01T10:53:40.736Z,0.30
2023-03-01T10:56:11.920Z,0.30
2023-03-01T10:58:42.290Z,0.67
2023-03-01T11:01:29.442Z,0.30
2023-03-01T11:04:14.983Z,1.03
2023-03-01T11:06:45.830Z,0.33
2023-03-01T11:09:18.590Z,0.40
2023-03-01T11:11:47.056Z,0.30
2023-03-01T11:14:26.703Z,0.40
2023-03-01T11:17:02.950Z,0.60
2023-03-01T11:19:31.522Z,1.07
2023-03-01T11:22:05.456Z,1.13
2023-03-01T11:24:42.339Z,1.23
2023-03-01T11:27:19.360Z,0.30
2023-03-01T11:29:52.281Z,0.30
2023-03-01T11:32:23.477Z,0.30
2023-03-01T11:34:57.257Z,0.90
2023-03-01T11:37:36.068Z,0.80
2023-03-01T11:40:25.528Z,0.30
2023-03-01T11:43:08.668Z,0.20
2023-03-01T11:45:49.996Z,0.27
2023-03-01T11:48:48.805Z,0.30
2023-03-01T11:51:26.717Z,0.20
2023-03-01T11:54:12.258Z,0.60
2023-03-01T11:56:45.852Z,0.27
2023-03-01T11:59:34.368Z,0.30
2023-03-01T12:02:27.710Z,0.30
2023-03-01T12:05:28.623Z,0.20
2023-03-01T12:08:04.581Z,0.30
2023-03-01T12:10:43.821Z,0.43
2023-03-01T12:13:35.635Z,0.37
2023-03-01T12:16:38.319Z,0.40
2023-03-01T12:19:31.922Z,0.50
2023-03-01T12:22:13.909Z,0.30
2023-03-01T12:25:18.309Z,0.70
2023-03-01T12:28:11.132Z,0.50
2023-03-01T12:30:56.094Z,0.40
2023-03-01T12:33:34.769Z,0.30
2023-03-01T12:36:36.214Z,1.03
2023-03-01T12:39:20.304Z,0.40
2023-03-01T12:42:04.020Z,0.73
2023-03-01T12:44:48.144Z,0.60
2023-03-01T12:47:33.186Z,0.93
2023-03-01T12:50:05.440Z,0.30
2023-03-01T12:52:41.292Z,0.30
2023-03-01T12:55:20.388Z,0.30
2023-03-01T12:57:55.685Z,0.40
2023-03-01T13:00:33.229Z,0.37
2023-03-01T13:03:13.222Z,0.60
2023-03-01T13:05:47.801Z,0.40
2023-03-01T13:08:23.249Z,0.30
2023-03-01T13:10:55.042Z,0.30
2023-03-01T13:13:24.845Z,0.50
2023-03-01T13:15:55.690Z,0.30
2023-03-01T13:18:35.635Z,0.30
2023-03-01T13:21:06.703Z,0.40
2023-03-01T13:23:37.950Z,0.70
2023-03-01T13:26:13.755Z,0.30
2023-03-01T13:28:51.700Z,0.53
2023-03-01T13:32:02.872Z,0.30
2023-03-01T13:34:47.777Z,0.30
2023-03-01T13:37:32.402Z,0.20
2023-03-01T13:40:06.001Z,0.40
2023-03-01T13:42:41.720Z,1.00
2023-03-01T13:45:21.436Z,0.40
2023-03-01T13:47:54.400Z,0.70
2023-03-01T13:50:27.118Z,0.40
2023-03-01T13:53:00.411Z,0.40
2023-03-01T13:55:37.529Z,0.57
2023-03-01T13:58:17.037Z,0.33
2023-03-01T14:00:45.638Z,0.50
2023-03-01T14:03:17.407Z,1.90
2023-03-01T14:06:13.158Z,0.70
2023-03-01T14:08:42.705Z,0.57
2023-03-01T14:11:47.987Z,0.30
2023-03-01T14:14:33.161Z,0.60
2023-03-01T14:17:26.318Z,0.40
2023-03-01T14:19:59.273Z,0.50
2023-03-01T14:22:31.286Z,1.33
2023-03-01T14:25:02.153Z,0.77
2023-03-01T14:27:35.645Z,0.43
2023-03-01T14:30:13.657Z,0.43
2023-03-01T14:32:42.016Z,1.17
2023-03-01T14:35:22.829Z,0.50
2023-03-01T14:37:52.734Z,0.40
2023-03-01T14:40:30.265Z,0.60
2023-03-01T14:43:01.692Z,0.33
2023-03-01T14:45:32.792Z,0.67
2023-03-01T14:48:03.951Z,1.43
2023-03-01T14:50:34.502Z,0.77
2023-03-01T14:53:06.862Z,0.77
2023-03-01T14:55:38.016Z,0.30
2023-03-01T14:58:08.030Z,1.10
2023-03-01T15:00:37.923Z,0.60
2023-03-01T15:03:14.570Z,2.23
2023-03-01T15:05:45.368Z,0.50
2023-03-01T15:08:22.702Z,0.60
2023-03-01T15:11:09.076Z,0.40
2023-03-01T15:13:38.282Z,0.80
2023-03-01T15:16:10.340Z,0.30
2023-03-01T15:18:39.354Z,0.33
2023-03-01T15:21:10.282Z,0.63
2023-03-01T15:23:42.554Z,0.57
2023-03-01T15:26:28.768Z,0.60
2023-03-01T15:29:00.310Z,0.40
2023-03-01T15:31:32.123Z,0.40
2023-03-01T15:34:24.561Z,0.20
2023-03-01T15:36:55.683Z,0.70
2023-03-01T15:39:38.520Z,0.60
2023-03-01T15:42:09.259Z,0.60
2023-03-01T15:44:43.869Z,0.70
2023-03-01T15:47:31.045Z,0.50
2023-03-01T15:50:01.317Z,0.47
2023-03-01T15:52:32.009Z,0.40
2023-03-01T15:55:04.286Z,0.30
2023-03-01T15:57:32.676Z,0.77
2023-03-01T16:00:01.008Z,0.73
2023-03-01T16:02:29.414Z,0.70
2023-03-01T16:04:58.475Z,0.40
2023-03-01T16:07:29.051Z,0.63
2023-03-01T16:09:57.469Z,0.63
2023-03-01T16:12:27.201Z,0.40
2023-03-01T16:14:55.461Z,0.30
2023-03-01T16:17:23.770Z,0.27
2023-03-01T16:19:52.053Z,0.63
2023-03-01T16:22:26.068Z,0.83
2023-03-01T16:24:54.813Z,0.40
2023-03-01T16:27:23.453Z,0.50
2023-03-01T16:29:53.287Z,1.20
2023-03-01T16:32:21.608Z,1.93
2023-03-01T16:34:50.452Z,0.40
2023-03-01T16:37:20.362Z,0.80
2023-03-01T16:39:49.980Z,0.40
2023-03-01T16:42:18.934Z,1.60
2023-03-01T16:44:47.395Z,0.70
2023-03-01T16:47:17.075Z,1.20
2023-03-01T16:49:45.450Z,0.80
2023-03-01T16:52:13.744Z,0.50
2023-03-01T16:54:42.065Z,0.80
2023-03-01T16:57:10.460Z,0.60
2023-03-01T16:59:38.800Z,1.27
2023-03-01T17:02:09.318Z,2.00
2023-03-01T17:04:39.038Z,0.83
2023-03-01T17:07:07.400Z,1.43
2023-03-01T17:09:37.907Z,0.73
2023-03-01T17:12:06.573Z,1.27
2023-03-01T17:14:34.891Z,3.13
2023-03-01T17:17:03.852Z,2.10
2023-03-01T17:19:32.991Z,1.90
2023-03-01T17:22:02.686Z,0.93
2023-03-01T17:24:34.024Z,1.13
2023-03-01T17:27:02.571Z,1.50
2023-03-01T17:29:31.104Z,1.23
2023-03-01T17:31:59.898Z,1.40
2023-03-01T17:34:28.329Z,2.10
2023-03-01T17:36:56.627Z,2.20
2023-03-01T17:39:32.214Z,1.70
2023-03-01T17:42:00.858Z,2.70
2023-03-01T17:44:29.293Z,2.37
2023-03-01T17:46:57.502Z,2.63
2023-03-01T17:49:25.780Z,3.40
2023-03-01T17:51:54.179Z,3.40
2023-03-01T17:54:22.534Z,2.27
2023-03-01T17:56:52.683Z,1.80
2023-03-01T17:59:21.286Z,4.20
2023-03-01T18:01:49.558Z,2.37
2023-03-01T18:04:18.602Z,3.30
2023-03-01T18:06:49.789Z,2.30
2023-03-01T18:09:18.054Z,2.23
2023-03-01T18:11:47.886Z,3.67
2023-03-01T18:14:17.714Z,1.70
2023-03-01T18:16:46.260Z,3.10
2023-03-01T18:19:14.569Z,3.67
2023-03-01T18:21:44.126Z,2.40
2023-03-01T18:24:12.671Z,2.67
2023-03-01T18:26:41.093Z,1.43
2023-03-01T18:29:10.728Z,1.37
2023-03-01T18:31:40.673Z,2.80
2023-03-01T18:34:08.912Z,1.63
2023-03-01T18:36:47.960Z,3.07
2023-03-01T18:39:24.987Z,2.30
2023-03-01T18:41:53.406Z,3.07
2023-03-01T18:44:21.727Z,0.80
2023-03-01T18:46:53.088Z,1.70
2023-03-01T18:49:21.303Z,1.63
2023-03-01T18:51:51.166Z,2.03
2023-03-01T18:54:19.794Z,2.20
2023-03-01T18:56:48.221Z,1.57
2023-03-01T18:59:16.529Z,1.83
2023-03-01T19:01:44.871Z,0.87
2023-03-01T19:04:15.116Z,0.93
2023-03-01T19:06:43.549Z,1.07
2023-03-01T19:09:12.781Z,0.40
2023-03-01T19:11:41.081Z,0.60
2023-03-01T19:14:09.743Z,0.93
2023-03-01T19:16:38.050Z,0.70
2023-03-01T19:19:08.581Z,0.90
2023-03-01T19:21:38.772Z,0.60
2023-03-01T19:24:07.990Z,1.03
2023-03-01T19:26:36.491Z,0.30
2023-03-01T19:29:06.360Z,0.83
2023-03-01T19:31:34.758Z,1.20
2023-03-01T19:34:11.446Z,1.60
2023-03-01T19:36:43.156Z,1.33
2023-03-01T19:39:13.747Z,0.87
2023-03-01T19:41:42.521Z,0.70
2023-03-01T19:44:11.454Z,0.80
2023-03-01T19:46:40.064Z,1.07
2023-03-01T19:49:08.585Z,0.40
2023-03-01T19:51:39.512Z,0.60
2023-03-01T19:54:11.920Z,0.73
2023-03-01T19:56:40.504Z,1.13
2023-03-01T19:59:09.212Z,0.90
2023-03-01T20:01:38.280Z,1.03
2023-03-01T20:04:07.151Z,1.33
2023-03-01T20:06:35.736Z,0.57
2023-03-01T20:09:18.977Z,0.90
2023-03-01T20:11:50.478Z,1.03
2023-03-01T20:14:19.344Z,0.70
2023-03-01T20:16:48.477Z,0.50
2023-03-01T20:19:16.808Z,0.43
2023-03-01T20:21:45.073Z,1.07
2023-03-01T20:24:15.036Z,0.53
2023-03-01T20:26:43.367Z,1.03
2023-03-01T20:29:13.107Z,0.60
2023-03-01T20:31:42.816Z,1.07
2023-03-01T20:34:11.435Z,1.73
2023-03-01T20:36:41.100Z,0.83
2023-03-01T20:39:09.867Z,1.80
2023-03-01T20:41:38.107Z,0.77
2023-03-01T20:44:07.325Z,0.70
2023-03-01T20:46:37.827Z,0.90
2023-03-01T20:49:07.396Z,0.93
2023-03-01T20:51:35.732Z,0.63
2023-03-01T20:54:05.257Z,0.70
2023-03-01T20:56:34.024Z,2.00
2023-03-01T20:59:04.490Z,0.50
2023-03-01T21:01:32.925Z,0.63
2023-03-01T21:04:02.807Z,0.70
2023-03-01T21:06:31.682Z,1.13
2023-03-01T21:09:01.441Z,1.40
2023-03-01T21:11:29.786Z,0.40
2023-03-01T21:13:58.198Z,0.57
2023-03-01T21:16:27.022Z,0.50
2023-03-01T21:18:55.449Z,1.20
2023-03-01T21:21:25.345Z,0.60
2023-03-01T21:23:54.889Z,1.43
2023-03-01T21:26:25.440Z,0.80
2023-03-01T21:28:57.395Z,1.47
2023-03-01T21:31:28.698Z,0.40
2023-03-01T21:33:59.250Z,0.50
2023-03-01T21:36:30.739Z,2.00
2023-03-01T21:39:01.993Z,1.30
2023-03-01T21:41:32.552Z,1.23
2023-03-01T21:44:03.279Z,0.40
2023-03-01T21:46:36.680Z,0.50
2023-03-01T21:49:07.381Z,0.80
2023-03-01T21:51:37.614Z,1.83
2023-03-01T21:54:06.934Z,1.37
2023-03-01T21:56:39.291Z,0.60
2023-03-01T21:59:09.497Z,0.67
2023-03-01T22:01:37.826Z,1.40
2023-03-01T22:04:06.603Z,1.10
2023-03-01T22:06:40.901Z,0.60
2023-03-01T22:09:11.160Z,0.40
2023-03-01T22:11:42.289Z,1.50
2023-03-01T22:14:13.552Z,0.60
2023-03-01T22:16:45.340Z,0.83
2023-03-01T22:19:15.778Z,1.13
2023-03-01T22:21:49.813Z,0.40
2023-03-01T22:24:19.996Z,0.50
2023-03-01T22:26:50.297Z,0.30
2023-03-01T22:29:21.506Z,0.50
2023-03-01T22:31:50.019Z,0.50
2023-03-01T22:34:18.544Z,0.40
2023-03-01T22:36:48.361Z,0.40
2023-03-01T22:39:18.957Z,0.40
2023-03-01T22:41:48.820Z,1.17
2023-03-01T22:44:19.157Z,0.70
2023-03-01T22:46:47.952Z,0.67
2023-03-01T22:49:16.849Z,0.80
2023-03-01T22:51:47.668Z,0.87
2023-03-01T22:54:18.842Z,0.30
2023-03-01T22:56:47.667Z,0.60
2023-03-01T22:59:19.066Z,1.10
2023-03-01T23:01:48.658Z,0.50
2023-03-01T23:04:17.796Z,0.50
2023-03-01T23:06:55.386Z,1.80
2023-03-01T23:09:27.551Z,1.00
2023-03-01T23:11:56.614Z,0.50
2023-03-01T23:14:25.648Z,0.60
2023-03-01T23:16:54.404Z,0.83
2023-03-01T23:19:23.201Z,0.57
2023-03-01T23:21:51.608Z,2.20
2023-03-01T23:24:21.478Z,0.50
2023-03-01T23:26:53.488Z,1.33
2023-03-01T23:29:22.132Z,0.60
2023-03-01T23:31:50.550Z,1.70
2023-03-01T23:34:19.409Z,0.53
2023-03-01T23:36:47.637Z,1.10
2023-03-01T23:39:15.969Z,0.90
2023-03-01T23:41:44.363Z,1.23
2023-03-01T23:44:17.298Z,1.30
2023-03-01T23:46:46.482Z,0.60
2023-03-01T23:49:16.778Z,1.13
2023-03-01T23:51:47.866Z,0.50
2023-03-01T23:54:18.542Z,0.60
2023-03-01T23:56:47.870Z,0.87
2023-03-01T23:59:19.979Z,0.93
